sensor_id;sensor_type;location;lat;lon;timestamp;P1;P2;P0
84436;PMS1003;74664;45.620;5.138;2024-03-23T00:53:46;7.67;7.00;4.67
84436;PMS1003;74664;45.620;5.138;2024-03-23T00:56:15;8.67;6.00;5.00
84436;PMS1003;74664;45.620;5.138;2024-03-23T00:58:46;6.67;6.00;4.67
84436;PMS1003;74664;45.620;5.138;2024-03-23T01:01:33;8.00;7.67;5.67
84436;PMS1003;74664;45.620;5.138;2024-03-23T01:04:06;6.33;5.67;5.33
84436;PMS1003;74664;45.620;5.138;2024-03-23T01:07:55;7.00;7.00;5.00
84436;PMS1003;74664;45.620;5.138;2024-03-23T01:12:48;6.00;5.50;5.00
84436;PMS1003;74664;45.620;5.138;2024-03-23T01:15:15;7.33;6.33;5.00
84436;PMS1003;74664;45.620;5.138;2024-03-23T01:17:41;6.00;6.00;5.00
84436;PMS1003;74664;45.620;5.138;2024-03-23T01:20:07;5.50;5.00;4.00
84436;PMS1003;74664;45.620;5.138;2024-03-23T01:22:34;5.75;5.75;4.50
84436;PMS1003;74664;45.620;5.138;2024-03-23T01:25:00;7.00;7.00;5.00
84436;PMS1003;74664;45.620;5.138;2024-03-23T01:27:26;7.00;7.00;5.00
84436;PMS1003;74664;45.620;5.138;2024-03-23T01:29:54;5.00;5.00;4.00
84436;PMS1003;74664;45.620;5.138;2024-03-23T01:32:20;6.67;6.67;4.33
84436;PMS1003;74664;45.620;5.138;2024-03-23T01:34:47;4.67;4.67;3.33
84436;PMS1003;74664;45.620;5.138;2024-03-23T01:37:12;5.33;5.33;4.00
84436;PMS1003;74664;45.620;5.138;2024-03-23T01:39:39;7.33;6.00;4.33
84436;PMS1003;74664;45.620;5.138;2024-03-23T01:42:05;5.67;5.67;4.00
84436;PMS1003;74664;45.620;5.138;2024-03-23T01:44:34;7.33;5.67;5.00
84436;PMS1003;74664;45.620;5.138;2024-03-23T01:47:02;7.67;7.67;5.00
84436;PMS1003;74664;45.620;5.138;2024-03-23T01:49:32;7.33;7.33;6.00
84436;PMS1003;74664;45.620;5.138;2024-03-23T01:52:02;8.00;6.33;5.00
84436;PMS1003;74664;45.620;5.138;2024-03-23T01:54:29;9.00;7.00;5.33
84436;PMS1003;74664;45.620;5.138;2024-03-23T01:56:55;6.67;6.67;5.00
84436;PMS1003;74664;45.620;5.138;2024-03-23T01:59:22;6.33;6.00;5.00
84436;PMS1003;74664;45.620;5.138;2024-03-23T02:01:48;6.33;6.33;5.00
84436;PMS1003;74664;45.620;5.138;2024-03-23T02:04:16;7.00;7.00;5.00
84436;PMS1003;74664;45.620;5.138;2024-03-23T02:06:42;6.00;5.33;5.00
84436;PMS1003;74664;45.620;5.138;2024-03-23T02:09:09;8.33;7.00;4.67
84436;PMS1003;74664;45.620;5.138;2024-03-23T02:11:34;9.00;7.00;5.00
84436;PMS1003;74664;45.620;5.138;2024-03-23T02:14:01;6.00;6.00;4.33
84436;PMS1003;74664;45.620;5.138;2024-03-23T02:16:27;5.00;5.00;4.00
84436;PMS1003;74664;45.620;5.138;2024-03-23T02:18:55;7.00;5.00;4.00
84436;PMS1003;74664;45.620;5.138;2024-03-23T02:24:13;8.67;7.00;6.00
84436;PMS1003;74664;45.620;5.138;2024-03-23T02:26:39;6.33;6.33;5.00
84436;PMS1003;74664;45.620;5.138;2024-03-23T02:29:05;8.33;8.33;6.00
84436;PMS1003;74664;45.620;5.138;2024-03-23T02:31:31;6.00;6.00;4.00
84436;PMS1003;74664;45.620;5.138;2024-03-23T02:33:58;6.00;5.67;4.00
84436;PMS1003;74664;45.620;5.138;2024-03-23T02:36:23;10.67;9.33;6.00
84436;PMS1003;74664;45.620;5.138;2024-03-23T02:38:50;6.67;6.67;5.67
84436;PMS1003;74664;45.620;5.138;2024-03-23T02:41:17;7.67;6.00;5.00
84436;PMS1003;74664;45.620;5.138;2024-03-23T02:43:48;8.67;8.33;6.67
84436;PMS1003;74664;45.620;5.138;2024-03-23T02:46:14;7.00;7.00;5.00
84436;PMS1003;74664;45.620;5.138;2024-03-23T02:48:40;6.00;6.00;5.00
84436;PMS1003;74664;45.620;5.138;2024-03-23T02:51:06;7.33;7.33;5.33
84436;PMS1003;74664;45.620;5.138;2024-03-23T02:53:33;12.33;9.33;6.67
84436;PMS1003;74664;45.620;5.138;2024-03-23T02:55:58;11.33;9.33;7.00
84436;PMS1003;74664;45.620;5.138;2024-03-23T02:58:26;8.67;8.67;6.00
84436;PMS1003;74664;45.620;5.138;2024-03-23T03:00:52;12.00;10.33;5.33
84436;PMS1003;74664;45.620;5.138;2024-03-23T03:03:19;9.00;8.33;6.00
84436;PMS1003;74664;45.620;5.138;2024-03-23T03:05:44;7.00;7.00;5.00
84436;PMS1003;74664;45.620;5.138;2024-03-23T03:08:11;8.33;8.33;7.00
84436;PMS1003;74664;45.620;5.138;2024-03-23T03:10:37;8.00;6.00;4.00
84436;PMS1003;74664;45.620;5.138;2024-03-23T03:13:03;8.33;7.00;5.00
84436;PMS1003;74664;45.620;5.138;2024-03-23T03:15:30;15.00;9.00;5.00
84436;PMS1003;74664;45.620;5.138;2024-03-23T03:17:57;5.67;5.67;5.00
84436;PMS1003;74664;45.620;5.138;2024-03-23T03:20:23;6.67;6.67;5.00
84436;PMS1003;74664;45.620;5.138;2024-03-23T03:22:50;11.00;9.33;7.00
84436;PMS1003;74664;45.620;5.138;2024-03-23T03:25:15;5.00;5.00;4.00
84436;PMS1003;74664;45.620;5.138;2024-03-23T03:27:42;8.33;6.33;4.33
84436;PMS1003;74664;45.620;5.138;2024-03-23T03:30:08;6.00;6.00;4.00
84436;PMS1003;74664;45.620;5.138;2024-03-23T03:32:37;11.00;9.67;6.33
84436;PMS1003;74664;45.620;5.138;2024-03-23T03:35:03;11.33;10.67;8.00
84436;PMS1003;74664;45.620;5.138;2024-03-23T03:37:30;7.00;7.00;5.33
84436;PMS1003;74664;45.620;5.138;2024-03-23T03:39:55;9.25;8.00;6.00
84436;PMS1003;74664;45.620;5.138;2024-03-23T03:42:22;9.25;8.75;7.00
84436;PMS1003;74664;45.620;5.138;2024-03-23T03:44:48;7.50;7.50;5.00
84436;PMS1003;74664;45.620;5.138;2024-03-23T03:47:14;9.25;9.25;6.75
84436;PMS1003;74664;45.620;5.138;2024-03-23T03:49:41;11.50;8.75;6.00
84436;PMS1003;74664;45.620;5.138;2024-03-23T03:52:08;11.75;9.25;7.00
84436;PMS1003;74664;45.620;5.138;2024-03-23T03:54:34;11.75;9.50;6.00
84436;PMS1003;74664;45.620;5.138;2024-03-23T03:57:00;15.75;10.50;6.00
84436;PMS1003;74664;45.620;5.138;2024-03-23T03:59:27;14.50;11.50;8.00
84436;PMS1003;74664;45.620;5.138;2024-03-23T04:01:53;13.00;9.25;7.00
84436;PMS1003;74664;45.620;5.138;2024-03-23T04:04:19;12.25;12.00;6.75
84436;PMS1003;74664;45.620;5.138;2024-03-23T04:06:48;6.00;6.00;5.00
84436;PMS1003;74664;45.620;5.138;2024-03-23T04:09:17;8.50;7.50;5.50
84436;PMS1003;74664;45.620;5.138;2024-03-23T04:11:45;12.50;8.75;6.50
84436;PMS1003;74664;45.620;5.138;2024-03-23T04:14:10;10.25;10.25;7.50
84436;PMS1003;74664;45.620;5.138;2024-03-23T04:16:37;12.00;9.50;7.00
84436;PMS1003;74664;45.620;5.138;2024-03-23T04:19:02;11.75;11.50;8.00
84436;PMS1003;74664;45.620;5.138;2024-03-23T04:21:29;13.25;10.00;8.00
84436;PMS1003;74664;45.620;5.138;2024-03-23T04:23:56;8.00;8.00;6.50
84436;PMS1003;74664;45.620;5.138;2024-03-23T04:26:23;6.00;6.00;5.25
84436;PMS1003;74664;45.620;5.138;2024-03-23T04:28:48;11.00;9.25;6.75
84436;PMS1003;74664;45.620;5.138;2024-03-23T04:31:15;12.00;9.25;7.00
84436;PMS1003;74664;45.620;5.138;2024-03-23T04:33:41;13.00;11.25;7.50
84436;PMS1003;74664;45.620;5.138;2024-03-23T04:36:07;12.00;11.00;8.00
84436;PMS1003;74664;45.620;5.138;2024-03-23T04:38:34;12.25;11.50;7.00
84436;PMS1003;74664;45.620;5.138;2024-03-23T04:41:02;11.25;11.00;7.00
84436;PMS1003;74664;45.620;5.138;2024-03-23T04:43:29;15.50;10.75;7.00
84436;PMS1003;74664;45.620;5.138;2024-03-23T04:45:56;9.75;7.75;6.00
84436;PMS1003;74664;45.620;5.138;2024-03-23T04:48:22;11.25;11.00;7.00
84436;PMS1003;74664;45.620;5.138;2024-03-23T04:50:49;13.75;12.00;7.75
84436;PMS1003;74664;45.620;5.138;2024-03-23T04:53:22;13.00;11.50;7.50
84436;PMS1003;74664;45.620;5.138;2024-03-23T04:55:53;10.75;10.75;7.00
84436;PMS1003;74664;45.620;5.138;2024-03-23T04:58:20;10.25;10.25;7.25
84436;PMS1003;74664;45.620;5.138;2024-03-23T05:00:46;11.75;9.50;7.00
84436;PMS1003;74664;45.620;5.138;2024-03-23T05:03:12;13.25;12.50;7.00
84436;PMS1003;74664;45.620;5.138;2024-03-23T05:05:39;14.00;12.75;7.50
84436;PMS1003;74664;45.620;5.138;2024-03-23T05:08:05;11.00;10.50;7.50
84436;PMS1003;74664;45.620;5.138;2024-03-23T05:10:32;10.75;10.00;7.00
84436;PMS1003;74664;45.620;5.138;2024-03-23T05:12:59;10.00;10.00;6.75
84436;PMS1003;74664;45.620;5.138;2024-03-23T05:15:27;12.25;11.00;8.50
84436;PMS1003;74664;45.620;5.138;2024-03-23T05:17:52;8.75;8.50;7.00
84436;PMS1003;74664;45.620;5.138;2024-03-23T05:20:19;11.25;10.00;7.25
84436;PMS1003;74664;45.620;5.138;2024-03-23T05:22:45;11.25;10.00;7.50
84436;PMS1003;74664;45.620;5.138;2024-03-23T05:25:11;13.00;12.25;9.00
84436;PMS1003;74664;45.620;5.138;2024-03-23T05:27:37;11.00;10.50;7.00
84436;PMS1003;74664;45.620;5.138;2024-03-23T05:30:04;14.00;12.00;9.75
84436;PMS1003;74664;45.620;5.138;2024-03-23T05:32:32;14.25;14.00;9.75
84436;PMS1003;74664;45.620;5.138;2024-03-23T05:34:59;17.50;15.50;10.50
84436;PMS1003;74664;45.620;5.138;2024-03-23T05:37:25;13.75;11.00;8.75
84436;PMS1003;74664;45.620;5.138;2024-03-23T05:39:51;12.75;12.00;8.75
84436;PMS1003;74664;45.620;5.138;2024-03-23T05:42:17;9.50;9.50;6.50
84436;PMS1003;74664;45.620;5.138;2024-03-23T05:44:44;14.50;12.50;9.00
84436;PMS1003;74664;45.620;5.138;2024-03-23T05:47:10;12.75;12.00;9.00
84436;PMS1003;74664;45.620;5.138;2024-03-23T05:49:39;15.25;10.50;8.50
84436;PMS1003;74664;45.620;5.138;2024-03-23T05:52:06;10.50;10.50;6.75
84436;PMS1003;74664;45.620;5.138;2024-03-23T05:54:33;11.25;11.25;8.50
84436;PMS1003;74664;45.620;5.138;2024-03-23T05:56:59;9.50;7.25;6.00
84436;PMS1003;74664;45.620;5.138;2024-03-23T05:59:25;9.00;8.25;5.00
84436;PMS1003;74664;45.620;5.138;2024-03-23T06:01:52;9.00;9.00;5.00
84436;PMS1003;74664;45.620;5.138;2024-03-23T06:04:19;11.00;11.00;7.00
84436;PMS1003;74664;45.620;5.138;2024-03-23T06:06:46;9.50;6.00;5.00
84436;PMS1003;74664;45.620;5.138;2024-03-23T06:09:13;12.25;11.75;9.00
84436;PMS1003;74664;45.620;5.138;2024-03-23T06:11:38;10.00;9.25;5.50
84436;PMS1003;74664;45.620;5.138;2024-03-23T06:14:05;12.00;9.00;6.75
84436;PMS1003;74664;45.620;5.138;2024-03-23T06:16:31;10.75;9.25;6.50
84436;PMS1003;74664;45.620;5.138;2024-03-23T06:18:57;10.25;9.25;6.50
84436;PMS1003;74664;45.620;5.138;2024-03-23T06:21:23;7.75;7.75;6.00
84436;PMS1003;74664;45.620;5.138;2024-03-23T06:23:52;9.00;9.00;6.00
84436;PMS1003;74664;45.620;5.138;2024-03-23T06:26:18;9.75;8.75;6.00
84436;PMS1003;74664;45.620;5.138;2024-03-23T06:28:44;9.25;8.75;6.75
84436;PMS1003;74664;45.620;5.138;2024-03-23T06:31:10;9.25;9.00;6.50
84436;PMS1003;74664;45.620;5.138;2024-03-23T06:33:37;9.75;9.00;7.75
84436;PMS1003;74664;45.620;5.138;2024-03-23T06:36:03;9.75;6.75;4.00
84436;PMS1003;74664;45.620;5.138;2024-03-23T06:38:31;10.25;10.25;8.00
84436;PMS1003;74664;45.620;5.138;2024-03-23T06:40:58;10.50;10.50;8.00
84436;PMS1003;74664;45.620;5.138;2024-03-23T06:43:25;6.25;5.75;5.00
84436;PMS1003;74664;45.620;5.138;2024-03-23T06:45:53;9.50;8.50;5.00
84436;PMS1003;74664;45.620;5.138;2024-03-23T06:48:20;7.00;6.25;5.00
84436;PMS1003;74664;45.620;5.138;2024-03-23T06:50:46;8.25;8.00;5.00
84436;PMS1003;74664;45.620;5.138;2024-03-23T06:53:13;5.25;4.00;3.00
84436;PMS1003;74664;45.620;5.138;2024-03-23T06:55:39;3.00;2.00;2.00
84436;PMS1003;74664;45.620;5.138;2024-03-23T06:58:07;2.00;2.00;1.00
84436;PMS1003;74664;45.620;5.138;2024-03-23T07:00:33;1.00;1.00;1.00
84436;PMS1003;74664;45.620;5.138;2024-03-23T07:03:00;1.00;1.00;0.00
84436;PMS1003;74664;45.620;5.138;2024-03-23T07:05:26;0.00;0.00;0.00
84436;PMS1003;74664;45.620;5.138;2024-03-23T07:07:52;0.75;0.00;0.00
84436;PMS1003;74664;45.620;5.138;2024-03-23T07:10:18;0.00;0.00;0.00
84436;PMS1003;74664;45.620;5.138;2024-03-23T07:12:45;1.00;0.00;0.00
84436;PMS1003;74664;45.620;5.138;2024-03-23T07:15:12;0.00;0.00;0.00
84436;PMS1003;74664;45.620;5.138;2024-03-23T07:17:38;0.00;0.00;0.00
84436;PMS1003;74664;45.620;5.138;2024-03-23T07:20:04;0.00;0.00;0.00
84436;PMS1003;74664;45.620;5.138;2024-03-23T07:22:35;0.00;0.00;0.00
84436;PMS1003;74664;45.620;5.138;2024-03-23T07:25:01;0.00;0.00;0.00
84436;PMS1003;74664;45.620;5.138;2024-03-23T07:27:28;0.00;0.00;0.00
84436;PMS1003;74664;45.620;5.138;2024-03-23T07:29:54;0.00;0.00;0.00
84436;PMS1003;74664;45.620;5.138;2024-03-23T07:32:22;0.00;0.00;0.00
84436;PMS1003;74664;45.620;5.138;2024-03-23T07:34:47;0.00;0.00;0.00
84436;PMS1003;74664;45.620;5.138;2024-03-23T07:37:14;0.00;0.00;0.00
84436;PMS1003;74664;45.620;5.138;2024-03-23T07:39:40;0.00;0.00;0.00
84436;PMS1003;74664;45.620;5.138;2024-03-23T07:42:07;0.00;0.00;0.00
84436;PMS1003;74664;45.620;5.138;2024-03-23T07:44:33;0.00;0.00;0.00
84436;PMS1003;74664;45.620;5.138;2024-03-23T07:47:00;0.00;0.00;0.00
84436;PMS1003;74664;45.620;5.138;2024-03-23T07:49:27;0.00;0.00;0.00
84436;PMS1003;74664;45.620;5.138;2024-03-23T07:51:54;0.00;0.00;0.00
84436;PMS1003;74664;45.620;5.138;2024-03-23T07:54:22;0.00;0.00;0.00
84436;PMS1003;74664;45.620;5.138;2024-03-23T07:56:49;0.00;0.00;0.00
84436;PMS1003;74664;45.620;5.138;2024-03-23T07:59:15;0.00;0.00;0.00
84436;PMS1003;74664;45.620;5.138;2024-03-23T08:01:41;0.00;0.00;0.00
84436;PMS1003;74664;45.620;5.138;2024-03-23T08:04:07;0.00;0.00;0.00
84436;PMS1003;74664;45.620;5.138;2024-03-23T08:06:35;1.25;1.25;0.75
84436;PMS1003;74664;45.620;5.138;2024-03-23T08:09:01;0.00;0.00;0.00
84436;PMS1003;74664;45.620;5.138;2024-03-23T08:11:27;0.00;0.00;0.00
84436;PMS1003;74664;45.620;5.138;2024-03-23T08:13:55;0.00;0.00;0.00
84436;PMS1003;74664;45.620;5.138;2024-03-23T08:16:22;0.00;0.00;0.00
84436;PMS1003;74664;45.620;5.138;2024-03-23T08:18:50;0.00;0.00;0.00
84436;PMS1003;74664;45.620;5.138;2024-03-23T08:21:17;0.00;0.00;0.00
84436;PMS1003;74664;45.620;5.138;2024-03-23T08:23:44;0.25;0.00;0.00
84436;PMS1003;74664;45.620;5.138;2024-03-23T08:26:12;0.00;0.00;0.00
84436;PMS1003;74664;45.620;5.138;2024-03-23T08:28:40;1.00;0.00;0.00
84436;PMS1003;74664;45.620;5.138;2024-03-23T08:31:07;1.00;1.00;0.00
84436;PMS1003;74664;45.620;5.138;2024-03-23T08:33:35;0.00;0.00;0.00
84436;PMS1003;74664;45.620;5.138;2024-03-23T08:36:03;0.00;0.00;0.00
84436;PMS1003;74664;45.620;5.138;2024-03-23T08:38:30;0.00;0.00;0.00
84436;PMS1003;74664;45.620;5.138;2024-03-23T08:40:58;0.00;0.00;0.00
84436;PMS1003;74664;45.620;5.138;2024-03-23T08:43:25;1.00;1.00;1.00
84436;PMS1003;74664;45.620;5.138;2024-03-23T08:45:51;0.75;0.75;0.25
84436;PMS1003;74664;45.620;5.138;2024-03-23T08:48:18;1.00;0.00;0.00
84436;PMS1003;74664;45.620;5.138;2024-03-23T08:50:45;1.00;1.00;1.00
84436;PMS1003;74664;45.620;5.138;2024-03-23T08:53:12;0.00;0.00;0.00
84436;PMS1003;74664;45.620;5.138;2024-03-23T08:55:37;0.00;0.00;0.00
84436;PMS1003;74664;45.620;5.138;2024-03-23T08:58:09;0.00;0.00;0.00
84436;PMS1003;74664;45.620;5.138;2024-03-23T09:00:35;0.00;0.00;0.00
84436;PMS1003;74664;45.620;5.138;2024-03-23T09:03:01;2.00;0.75;0.50
84436;PMS1003;74664;45.620;5.138;2024-03-23T09:05:30;0.25;0.25;0.00
84436;PMS1003;74664;45.620;5.138;2024-03-23T09:08:01;0.00;0.00;0.00
84436;PMS1003;74664;45.620;5.138;2024-03-23T09:10:26;0.00;0.00;0.00
84436;PMS1003;74664;45.620;5.138;2024-03-23T09:12:53;1.00;1.00;0.00
84436;PMS1003;74664;45.620;5.138;2024-03-23T09:15:20;0.00;0.00;0.00
84436;PMS1003;74664;45.620;5.138;2024-03-23T09:17:49;0.00;0.00;0.00
84436;PMS1003;74664;45.620;5.138;2024-03-23T09:20:14;0.00;0.00;0.00
84436;PMS1003;74664;45.620;5.138;2024-03-23T09:22:41;0.00;0.00;0.00
84436;PMS1003;74664;45.620;5.138;2024-03-23T09:25:07;0.00;0.00;0.00
84436;PMS1003;74664;45.620;5.138;2024-03-23T09:27:34;0.00;0.00;0.00
84436;PMS1003;74664;45.620;5.138;2024-03-23T09:30:00;0.50;0.50;0.00
84436;PMS1003;74664;45.620;5.138;2024-03-23T09:32:28;0.50;0.00;0.00
84436;PMS1003;74664;45.620;5.138;2024-03-23T09:34:53;1.75;0.00;0.00
84436;PMS1003;74664;45.620;5.138;2024-03-23T09:37:20;1.75;0.00;0.00
84436;PMS1003;74664;45.620;5.138;2024-03-23T09:39:46;1.50;0.00;0.00
84436;PMS1003;74664;45.620;5.138;2024-03-23T09:42:13;0.25;0.00;0.00
84436;PMS1003;74664;45.620;5.138;2024-03-23T09:44:39;0.00;0.00;0.00
84436;PMS1003;74664;45.620;5.138;2024-03-23T09:47:06;1.00;0.00;0.00
84436;PMS1003;74664;45.620;5.138;2024-03-23T09:49:35;0.50;0.00;0.00
84436;PMS1003;74664;45.620;5.138;2024-03-23T09:52:02;0.00;0.00;0.00
84436;PMS1003;74664;45.620;5.138;2024-03-23T09:54:28;0.75;0.75;0.00
84436;PMS1003;74664;45.620;5.138;2024-03-23T09:56:54;0.50;0.25;0.00
84436;PMS1003;74664;45.620;5.138;2024-03-23T09:59:20;0.00;0.00;0.00
84436;PMS1003;74664;45.620;5.138;2024-03-23T10:01:47;0.00;0.00;0.00
84436;PMS1003;74664;45.620;5.138;2024-03-23T10:07:16;0.00;0.00;0.00
84436;PMS1003;74664;45.620;5.138;2024-03-23T10:09:43;0.00;0.00;0.00
84436;PMS1003;74664;45.620;5.138;2024-03-23T10:12:12;0.00;0.00;0.00
84436;PMS1003;74664;45.620;5.138;2024-03-23T10:14:39;1.00;1.00;0.00
84436;PMS1003;74664;45.620;5.138;2024-03-23T10:17:12;0.00;0.00;0.00
84436;PMS1003;74664;45.620;5.138;2024-03-23T10:19:40;0.00;0.00;0.00
84436;PMS1003;74664;45.620;5.138;2024-03-23T10:22:08;1.00;0.00;0.00
84436;PMS1003;74664;45.620;5.138;2024-03-23T10:24:38;0.00;0.00;0.00
84436;PMS1003;74664;45.620;5.138;2024-03-23T10:27:05;0.00;0.00;0.00
84436;PMS1003;74664;45.620;5.138;2024-03-23T10:29:30;4.00;1.00;0.25
84436;PMS1003;74664;45.620;5.138;2024-03-23T10:32:07;0.00;0.00;0.00
84436;PMS1003;74664;45.620;5.138;2024-03-23T10:34:34;0.00;0.00;0.00
84436;PMS1003;74664;45.620;5.138;2024-03-23T10:37:03;0.00;0.00;0.00
84436;PMS1003;74664;45.620;5.138;2024-03-23T10:39:33;0.00;0.00;0.00
84436;PMS1003;74664;45.620;5.138;2024-03-23T10:42:02;0.75;0.75;0.75
84436;PMS1003;74664;45.620;5.138;2024-03-23T10:44:28;0.00;0.00;0.00
84436;PMS1003;74664;45.620;5.138;2024-03-23T10:46:56;0.00;0.00;0.00
84436;PMS1003;74664;45.620;5.138;2024-03-23T10:49:25;0.00;0.00;0.00
84436;PMS1003;74664;45.620;5.138;2024-03-23T10:51:54;0.50;0.50;0.50
84436;PMS1003;74664;45.620;5.138;2024-03-23T10:57:43;1.00;0.00;0.00
84436;PMS1003;74664;45.620;5.138;2024-03-23T11:00:14;1.00;0.00;0.00
84436;PMS1003;74664;45.620;5.138;2024-03-23T11:02:41;0.00;0.00;0.00
84436;PMS1003;74664;45.620;5.138;2024-03-23T11:07:55;0.00;0.00;0.00
84436;PMS1003;74664;45.620;5.138;2024-03-23T11:10:25;1.25;0.50;0.00
84436;PMS1003;74664;45.620;5.138;2024-03-23T11:12:54;0.00;0.00;0.00
84436;PMS1003;74664;45.620;5.138;2024-03-23T11:15:20;0.00;0.00;0.00
84436;PMS1003;74664;45.620;5.138;2024-03-23T11:20:31;0.00;0.00;0.00
84436;PMS1003;74664;45.620;5.138;2024-03-23T11:22:57;0.00;0.00;0.00
84436;PMS1003;74664;45.620;5.138;2024-03-23T11:25:27;0.00;0.00;0.00
84436;PMS1003;74664;45.620;5.138;2024-03-23T11:27:56;0.50;0.00;0.00
84436;PMS1003;74664;45.620;5.138;2024-03-23T11:30:23;0.00;0.00;0.00
84436;PMS1003;74664;45.620;5.138;2024-03-23T11:32:52;0.00;0.00;0.00
84436;PMS1003;74664;45.620;5.138;2024-03-23T11:35:27;0.00;0.00;0.00
84436;PMS1003;74664;45.620;5.138;2024-03-23T11:38:03;0.00;0.00;0.00
84436;PMS1003;74664;45.620;5.138;2024-03-23T11:40:31;0.00;0.00;0.00
84436;PMS1003;74664;45.620;5.138;2024-03-23T11:42:59;0.00;0.00;0.00
84436;PMS1003;74664;45.620;5.138;2024-03-23T11:45:28;0.00;0.00;0.00
84436;PMS1003;74664;45.620;5.138;2024-03-23T11:48:02;0.50;0.50;0.00
84436;PMS1003;74664;45.620;5.138;2024-03-23T11:50:29;0.00;0.00;0.00
84436;PMS1003;74664;45.620;5.138;2024-03-23T11:53:05;0.00;0.00;0.00
84436;PMS1003;74664;45.620;5.138;2024-03-23T11:55:41;0.00;0.00;0.00
84436;PMS1003;74664;45.620;5.138;2024-03-23T11:58:09;0.00;0.00;0.00
84436;PMS1003;74664;45.620;5.138;2024-03-23T12:00:37;0.00;0.00;0.00
84436;PMS1003;74664;45.620;5.138;2024-03-23T12:03:03;0.00;0.00;0.00
84436;PMS1003;74664;45.620;5.138;2024-03-23T12:05:30;0.00;0.00;0.00
84436;PMS1003;74664;45.620;5.138;2024-03-23T12:10:52;0.00;0.00;0.00
84436;PMS1003;74664;45.620;5.138;2024-03-23T12:13:35;0.00;0.00;0.00
84436;PMS1003;74664;45.620;5.138;2024-03-23T12:16:11;1.00;0.00;0.00
84436;PMS1003;74664;45.620;5.138;2024-03-23T12:18:39;1.00;0.00;0.00
84436;PMS1003;74664;45.620;5.138;2024-03-23T12:21:06;0.00;0.00;0.00
84436;PMS1003;74664;45.620;5.138;2024-03-23T12:23:32;0.00;0.00;0.00
84436;PMS1003;74664;45.620;5.138;2024-03-23T12:25:58;0.00;0.00;0.00
84436;PMS1003;74664;45.620;5.138;2024-03-23T12:28:25;0.00;0.00;0.00
84436;PMS1003;74664;45.620;5.138;2024-03-23T12:30:55;0.00;0.00;0.00
84436;PMS1003;74664;45.620;5.138;2024-03-23T12:33:22;0.00;0.00;0.00
84436;PMS1003;74664;45.620;5.138;2024-03-23T12:35:48;1.00;0.00;0.00
84436;PMS1003;74664;45.620;5.138;2024-03-23T12:38:15;0.00;0.00;0.00
84436;PMS1003;74664;45.620;5.138;2024-03-23T12:40:40;0.00;0.00;0.00
84436;PMS1003;74664;45.620;5.138;2024-03-23T12:43:07;0.00;0.00;0.00
84436;PMS1003;74664;45.620;5.138;2024-03-23T12:45:33;0.00;0.00;0.00
84436;PMS1003;74664;45.620;5.138;2024-03-23T12:48:01;0.00;0.00;0.00
84436;PMS1003;74664;45.620;5.138;2024-03-23T12:50:27;1.00;0.00;0.00
84436;PMS1003;74664;45.620;5.138;2024-03-23T12:52:53;0.00;0.00;0.00
84436;PMS1003;74664;45.620;5.138;2024-03-23T12:55:19;0.00;0.00;0.00
84436;PMS1003;74664;45.620;5.138;2024-03-23T12:57:46;0.00;0.00;0.00
84436;PMS1003;74664;45.620;5.138;2024-03-23T13:00:13;1.25;0.00;0.00
84436;PMS1003;74664;45.620;5.138;2024-03-23T13:02:40;0.00;0.00;0.00
84436;PMS1003;74664;45.620;5.138;2024-03-23T13:05:08;0.00;0.00;0.00
84436;PMS1003;74664;45.620;5.138;2024-03-23T13:07:35;0.25;0.00;0.00
84436;PMS1003;74664;45.620;5.138;2024-03-23T13:10:01;0.00;0.00;0.00
84436;PMS1003;74664;45.620;5.138;2024-03-23T13:12:31;0.00;0.00;0.00
84436;PMS1003;74664;45.620;5.138;2024-03-23T13:14:57;0.00;0.00;0.00
84436;PMS1003;74664;45.620;5.138;2024-03-23T13:17:24;0.00;0.00;0.00
84436;PMS1003;74664;45.620;5.138;2024-03-23T13:19:51;0.00;0.00;0.00
84436;PMS1003;74664;45.620;5.138;2024-03-23T13:25:50;0.00;0.00;0.00
84436;PMS1003;74664;45.620;5.138;2024-03-23T13:28:17;0.00;0.00;0.00
84436;PMS1003;74664;45.620;5.138;2024-03-23T13:30:49;0.00;0.00;0.00
84436;PMS1003;74664;45.620;5.138;2024-03-23T13:33:16;0.00;0.00;0.00
84436;PMS1003;74664;45.620;5.138;2024-03-23T13:35:48;0.00;0.00;0.00
84436;PMS1003;74664;45.620;5.138;2024-03-23T13:38:16;0.00;0.00;0.00
84436;PMS1003;74664;45.620;5.138;2024-03-23T13:40:48;0.00;0.00;0.00
84436;PMS1003;74664;45.620;5.138;2024-03-23T13:43:26;0.00;0.00;0.00
84436;PMS1003;74664;45.620;5.138;2024-03-23T13:45:53;0.00;0.00;0.00
84436;PMS1003;74664;45.620;5.138;2024-03-23T13:48:22;0.00;0.00;0.00
84436;PMS1003;74664;45.620;5.138;2024-03-23T13:50:58;0.00;0.00;0.00
84436;PMS1003;74664;45.620;5.138;2024-03-23T13:53:25;0.00;0.00;0.00
84436;PMS1003;74664;45.620;5.138;2024-03-23T13:55:51;0.00;0.00;0.00
84436;PMS1003;74664;45.620;5.138;2024-03-23T13:58:19;0.00;0.00;0.00
84436;PMS1003;74664;45.620;5.138;2024-03-23T14:00:45;1.00;1.00;0.00
84436;PMS1003;74664;45.620;5.138;2024-03-23T14:03:12;0.00;0.00;0.00
84436;PMS1003;74664;45.620;5.138;2024-03-23T14:05:40;0.25;0.00;0.00
84436;PMS1003;74664;45.620;5.138;2024-03-23T14:08:08;0.00;0.00;0.00
84436;PMS1003;74664;45.620;5.138;2024-03-23T14:10:34;0.00;0.00;0.00
84436;PMS1003;74664;45.620;5.138;2024-03-23T14:13:04;0.00;0.00;0.00
84436;PMS1003;74664;45.620;5.138;2024-03-23T14:15:31;1.00;0.00;0.00
84436;PMS1003;74664;45.620;5.138;2024-03-23T14:17:58;0.00;0.00;0.00
84436;PMS1003;74664;45.620;5.138;2024-03-23T14:20:24;2.00;0.75;0.75
84436;PMS1003;74664;45.620;5.138;2024-03-23T14:22:51;0.00;0.00;0.00
84436;PMS1003;74664;45.620;5.138;2024-03-23T14:25:17;0.00;0.00;0.00
84436;PMS1003;74664;45.620;5.138;2024-03-23T14:27:52;0.00;0.00;0.00
84436;PMS1003;74664;45.620;5.138;2024-03-23T14:30:18;0.00;0.00;0.00
84436;PMS1003;74664;45.620;5.138;2024-03-23T14:32:47;0.00;0.00;0.00
84436;PMS1003;74664;45.620;5.138;2024-03-23T14:35:16;0.00;0.00;0.00
84436;PMS1003;74664;45.620;5.138;2024-03-23T14:37:43;0.00;0.00;0.00
84436;PMS1003;74664;45.620;5.138;2024-03-23T14:40:09;0.00;0.00;0.00
84436;PMS1003;74664;45.620;5.138;2024-03-23T14:42:38;1.00;0.50;0.00
84436;PMS1003;74664;45.620;5.138;2024-03-23T14:45:05;0.00;0.00;0.00
84436;PMS1003;74664;45.620;5.138;2024-03-23T14:47:34;0.00;0.00;0.00
84436;PMS1003;74664;45.620;5.138;2024-03-23T14:50:01;0.00;0.00;0.00
84436;PMS1003;74664;45.620;5.138;2024-03-23T14:52:28;0.00;0.00;0.00
84436;PMS1003;74664;45.620;5.138;2024-03-23T14:54:54;0.00;0.00;0.00
84436;PMS1003;74664;45.620;5.138;2024-03-23T14:57:21;0.00;0.00;0.00
84436;PMS1003;74664;45.620;5.138;2024-03-23T14:59:49;0.00;0.00;0.00
84436;PMS1003;74664;45.620;5.138;2024-03-23T15:02:17;0.00;0.00;0.00
84436;PMS1003;74664;45.620;5.138;2024-03-23T15:04:42;0.00;0.00;0.00
84436;PMS1003;74664;45.620;5.138;2024-03-23T15:07:12;0.00;0.00;0.00
84436;PMS1003;74664;45.620;5.138;2024-03-23T15:09:38;0.00;0.00;0.00
84436;PMS1003;74664;45.620;5.138;2024-03-23T15:12:05;1.00;0.00;0.00
84436;PMS1003;74664;45.620;5.138;2024-03-23T15:14:33;0.00;0.00;0.00
84436;PMS1003;74664;45.620;5.138;2024-03-23T15:17:00;2.00;2.00;1.50
84436;PMS1003;74664;45.620;5.138;2024-03-23T15:19:29;14.25;13.75;7.50
84436;PMS1003;74664;45.620;5.138;2024-03-23T15:21:59;0.25;0.25;0.00
84436;PMS1003;74664;45.620;5.138;2024-03-23T15:24:29;0.25;0.25;0.00
84436;PMS1003;74664;45.620;5.138;2024-03-23T15:26:56;1.00;0.00;0.00
84436;PMS1003;74664;45.620;5.138;2024-03-23T15:29:22;0.75;0.50;0.00
84436;PMS1003;74664;45.620;5.138;2024-03-23T15:31:52;1.00;1.00;0.00
84436;PMS1003;74664;45.620;5.138;2024-03-23T15:34:18;1.50;1.50;1.25
84436;PMS1003;74664;45.620;5.138;2024-03-23T15:36:52;0.00;0.00;0.00